地図

経路データ

SID SEASON NUMBER BASIN SUBBASIN NAME ISO_TIME NATURE LAT LON WMO_WIND WMO_PRES WMO_AGENCY TRACK_TYPE DIST2LAND LANDFALL IFLAG USA_AGENCY USA_ATCF_ID USA_LAT USA_LON USA_RECORD USA_STATUS USA_WIND USA_PRES USA_SSHS USA_R34_NE USA_R34_SE USA_R34_SW USA_R34_NW USA_R50_NE USA_R50_SE USA_R50_SW USA_R50_NW USA_R64_NE USA_R64_SE USA_R64_SW USA_R64_NW USA_POCI USA_ROCI USA_RMW USA_EYE TOKYO_LAT TOKYO_LON TOKYO_GRADE TOKYO_WIND TOKYO_PRES TOKYO_R50_DIR TOKYO_R50_LONG TOKYO_R50_SHORT TOKYO_R30_DIR TOKYO_R30_LONG TOKYO_R30_SHORT TOKYO_LAND CMA_LAT CMA_LON CMA_CAT CMA_WIND CMA_PRES HKO_LAT HKO_LON HKO_CAT HKO_WIND HKO_PRES NEWDELHI_LAT NEWDELHI_LON NEWDELHI_GRADE NEWDELHI_WIND NEWDELHI_PRES NEWDELHI_CI NEWDELHI_DP NEWDELHI_POCI REUNION_LAT REUNION_LON REUNION_TYPE REUNION_WIND REUNION_PRES REUNION_TNUM REUNION_CI REUNION_RMW REUNION_R34_NE REUNION_R34_SE REUNION_R34_SW REUNION_R34_NW REUNION_R50_NE REUNION_R50_SE REUNION_R50_SW REUNION_R50_NW REUNION_R64_NE REUNION_R64_SE REUNION_R64_SW REUNION_R64_NW BOM_LAT BOM_LON BOM_TYPE BOM_WIND BOM_PRES BOM_TNUM BOM_CI BOM_RMW BOM_R34_NE BOM_R34_SE BOM_R34_SW BOM_R34_NW BOM_R50_NE BOM_R50_SE BOM_R50_SW BOM_R50_NW BOM_R64_NE BOM_R64_SE BOM_R64_SW BOM_R64_NW BOM_ROCI BOM_POCI BOM_EYE BOM_POS_METHOD BOM_PRES_METHOD NADI_LAT NADI_LON NADI_CAT NADI_WIND NADI_PRES WELLINGTON_LAT WELLINGTON_LON WELLINGTON_WIND WELLINGTON_PRES DS824_LAT DS824_LON DS824_STAGE DS824_WIND DS824_PRES TD9636_LAT TD9636_LON TD9636_STAGE TD9636_WIND TD9636_PRES TD9635_LAT TD9635_LON TD9635_WIND TD9635_PRES TD9635_ROCI NEUMANN_LAT NEUMANN_LON NEUMANN_CLASS NEUMANN_WIND NEUMANN_PRES MLC_LAT MLC_LON MLC_CLASS MLC_WIND MLC_PRES USA_GUST BOM_GUST BOM_GUST_PER REUNION_GUST REUNION_GUST_PER USA_SEAHGT USA_SEARAD_NE USA_SEARAD_SE USA_SEARAD_SW USA_SEARAD_NW STORM_SPEED STORM_DIR
1953167N17087 1953 26 NI BB NOT_NAMED 1953-06-15 18:00:00 TS 17.1000 86.5000 main 276 269 O________O____ jtwc_io IO031953 17.1000 86.5000 -1 17.1000 86.5000 TC 4 18
1953167N17087 1953 26 NI BB NOT_NAMED 1953-06-15 21:00:00 TS 17.2800 86.5600 main 269 263 P________P____ IO031953 17.2800 86.5600 -1 17.2800 86.5600 TC 3 17
1953167N17087 1953 26 NI BB NOT_NAMED 1953-06-16 00:00:00 TS 17.4000 86.6000 main 263 263 O________O____ jtwc_io IO031953 17.4000 86.6000 -1 17.4000 86.6000 TC 25 1 19
1953167N17087 1953 26 NI BB NOT_NAMED 1953-06-16 03:00:00 TS 17.4200 86.6067 main 263 263 P________PO___ IO031953 17.4225 86.6075 -1 17.4225 86.6075 TC 25 17.4000 86.6000 1 0 0
1953167N17087 1953 26 NI BB NOT_NAMED 1953-06-16 06:00:00 TS 17.4034 86.6003 main 263 263 O________OP___ jtwc_io IO031953 17.4000 86.6000 -1 17.4000 86.6000 TC 25 17.4172 86.6016 1 0 0
1953167N17087 1953 26 NI BB NOT_NAMED 1953-06-16 09:00:00 TS 17.4075 86.6007 main 263 263 P________PP___ IO031953 17.4000 86.6000 -1 17.4000 86.6000 TC 25 17.4275 86.6025 1 0 0
1953167N17087 1953 26 NI BB NOT_NAMED 1953-06-16 12:00:00 TS 17.4080 86.6007 main 263 263 O________OP___ jtwc_io IO031953 17.4000 86.6000 -1 17.4000 86.6000 TC 25 17.4241 86.6022 1 0 0
1953167N17087 1953 26 NI BB NOT_NAMED 1953-06-16 15:00:00 TS 17.4000 86.6000 main 263 263 P________PO___ IO031953 17.4000 86.6000 -1 17.4000 86.6000 TC 25 17.4000 86.6000 1 0 0
1953167N17087 1953 26 NI BB NOT_NAMED 1953-06-16 18:00:00 TS 17.3851 86.5987 main 263 263 O________OP___ jtwc_io IO031953 17.4000 86.6000 -1 17.4000 86.6000 TC 25 17.3553 86.5960 1 0 215
1953167N17087 1953 26 NI BB NOT_NAMED 1953-06-16 21:00:00 TS 17.3675 86.5975 main 263 263 P________PP___ IO031953 17.3925 86.6000 -1 17.3925 86.6000 TC 25 17.3175 86.5925 1 0 0
1953167N17087 1953 26 NI BB NOT_NAMED 1953-06-17 00:00:00 TS 17.3736 86.5976 main 263 263 O________OP___ jtwc_io IO031953 17.4000 86.6000 -1 17.4000 86.6000 TC 25 17.3209 86.5929 1 0 321
1953167N17087 1953 26 NI BB NOT_NAMED 1953-06-17 03:00:00 TS 17.3983 86.5950 main 263 256 P________PO___ IO031953 17.3975 86.5925 -1 17.3975 86.5925 TC 25 17.4000 86.6000 1 2 5
1953167N17087 1953 26 NI BB NOT_NAMED 1953-06-17 06:00:00 TS 17.5360 86.6113 main 256 237 O________OP___ jtwc_io IO031953 17.5000 86.6000 -1 17.5000 86.6000 TC 25 17.6081 86.6339 1 5 8
1953167N17087 1953 26 NI BB NOT_NAMED 1953-06-17 09:00:00 TS 17.8433 86.6573 main 242 200 P________PP___ IO031953 17.8200 86.6499 -1 17.8200 86.6499 TC 25 17.8900 86.6722 1 7 7
1953167N17087 1953 26 NI BB NOT_NAMED 1953-06-17 12:00:00 TS 18.2006 86.6998 main 200 168 O________OP___ jtwc_io IO031953 18.2000 86.7000 -1 18.2000 86.7000 TC 25 18.2019 86.6994 1 6 5
1953167N17087 1953 26 NI BB NOT_NAMED 1953-06-17 15:00:00 TS 18.4817 86.7150 main 168 148 P________PO___ IO031953 18.4725 86.7225 -1 18.4725 86.7225 TC 25 18.5000 86.7000 1 5 0
1953167N17087 1953 26 NI BB NOT_NAMED 1953-06-17 18:00:00 TS 18.7140 86.6833 main 148 123 O________OP___ jtwc_io IO031953 18.7000 86.7000 -1 18.7000 86.7000 TC 25 18.7419 86.6499 1 5 347
1953167N17087 1953 26 NI BB NOT_NAMED 1953-06-17 21:00:00 TS 18.9300 86.6010 main 123 98 P________PP___ IO031953 18.9150 86.6150 -1 18.9150 86.6150 TC 25 18.9600 86.5728 1 4 336
1953167N17087 1953 26 NI BB NOT_NAMED 1953-06-18 00:00:00 TS 19.1160 86.4948 main 98 74 O________OP___ jtwc_io IO031953 19.1000 86.5000 -1 19.1000 86.5000 TC 25 19.1481 86.4842 1 4 331
1953167N17087 1953 26 NI BB NOT_NAMED 1953-06-18 03:00:00 TS 19.2817 86.3900 main 74 59 P________PO___ IO031953 19.2725 86.3850 -1 19.2725 86.3850 TC 25 19.3000 86.4000 1 3 330
1953167N17087 1953 26 NI BB NOT_NAMED 1953-06-18 06:00:00 TS 19.4063 86.3170 main 59 49 O________OP___ jtwc_io IO031953 19.4000 86.3000 -1 19.4000 86.3000 TC 25 19.4190 86.3508 1 2 337
1953167N17087 1953 26 NI BB NOT_NAMED 1953-06-18 09:00:00 TS 19.4775 86.2974 main 49 49 P________PP___ IO031953 19.4650 86.2925 -1 19.4650 86.2925 TC 25 19.5024 86.3074 1 1 343
1953167N17087 1953 26 NI BB NOT_NAMED 1953-06-18 12:00:00 TS 19.5199 86.2867 main 49 35 O________OP___ jtwc_io IO031953 19.5000 86.3000 -1 19.5000 86.3000 TC 25 19.5596 86.2602 1 1 328
1953167N17087 1953 26 NI BB NOT_NAMED 1953-06-18 15:00:00 TS 19.5667 86.2433 main 35 35 P________PO___ IO031953 19.5500 86.2650 -1 19.5500 86.2650 TC 25 19.6000 86.2000 1 1 317
1953167N17087 1953 26 NI BB NOT_NAMED 1953-06-18 18:00:00 TS 19.6239 86.1837 main 35 22 O________OP___ jtwc_io IO031953 19.6000 86.2000 -1 19.6000 86.2000 TC 25 19.6716 86.1512 1 2 315
1953167N17087 1953 26 NI BB NOT_NAMED 1953-06-18 21:00:00 TS 19.6848 86.1143 main 22 22 P________PP___ IO031953 19.6649 86.1300 -1 19.6649 86.1300 TC 25 19.7246 86.0830 1 2 296
1953167N17087 1953 26 NI BB NOT_NAMED 1953-06-19 00:00:00 TS 19.7134 85.9911 main 22 11 O________OP___ jtwc_io IO031953 19.7000 86.0000 -1 19.7000 86.0000 TC 25 19.7403 85.9733 1 3 272
1953167N17087 1953 26 NI BB NOT_NAMED 1953-06-19 03:00:00 TS 19.6966 85.7918 main 11 10 P________PO___ IO031953 19.6950 85.7877 -1 19.6950 85.7877 TC 25 19.7000 85.8000 1 5 252
1953167N17087 1953 26 NI BB NOT_NAMED 1953-06-19 06:00:00 TS 19.5699 85.5114 main 10 10 O________OP___ jtwc_io IO031953 19.6000 85.5000 -1 19.6000 85.5000 TC 25 19.5097 85.5342 1 7 237
1953167N17087 1953 26 NI BB NOT_NAMED 1953-06-19 09:00:00 TS 19.3202 85.1740 main 22 10 P________PP___ IO031953 19.3426 85.1571 -1 19.3426 85.1571 TC 25 19.2754 85.2078 1 8 234
1953167N17087 1953 26 NI BB NOT_NAMED 1953-06-19 12:00:00 TS 19.0928 84.8176 main 10 0 O________OP___ jtwc_io IO031953 19.1000 84.8000 -1 19.1000 84.8000 TC 25 19.0784 84.8528 1 7 245
1953167N17087 1953 26 NI BB NOT_NAMED 1953-06-19 15:00:00 TS 19.0166 84.4950 main 0 0 P________PO___ IO031953 19.0249 84.4925 -1 19.0249 84.4925 TC 25 19.0000 84.5000 1 6 271
1953167N17087 1953 26 NI BB NOT_NAMED 1953-06-19 18:00:00 TS 19.1000 84.1893 main 0 0 O________OP___ jtwc_io IO031953 19.1000 84.2000 -1 19.1000 84.2000 TC 25 19.0999 84.1733 1 7 299
1953167N17087 1953 26 NI BB NOT_NAMED 1953-06-19 21:00:00 TS 19.3286 83.8887 main 0 0 P________PP___ IO031953 19.3126 83.9027 -1 19.3126 83.9027 TC 25 19.3500 83.8701 1 8 314
1953167N17087 1953 26 NI BB NOT_NAMED 1953-06-20 00:00:00 TS 19.6501 83.5909 main 0 0 O________OP___ jtwc_io IO031953 19.6000 83.6000 -1 19.6000 83.6000 TC 25 19.7001 83.5818 1 10 324
1953167N17087 1953 26 NI BB NOT_NAMED 1953-06-20 03:00:00 NR 20.1000 83.3000 main 0 __________O___ IO031953 -1 TC 20.1000 83.3000 1 11 329

IBTrACS Databaseについて

本データベースは、米国NOAAが公開する1842年以降の世界の熱帯低気圧のベストトラックデータアーカイブInternational Best Track Archive for Climate Stewardship (IBTrACS)を、ウェブで閲覧しやすい形式に変換したものです。

最終更新日:2021-10-08